sensor_id;sensor_type;location;lat;lon;timestamp;temperature;humidity
8666;DHT22;4370;48.916;8.380;2023-08-07T00:10:43;13.10;99.90
8666;DHT22;4370;48.916;8.380;2023-08-07T00:13:09;13.10;99.90
8666;DHT22;4370;48.916;8.380;2023-08-07T00:18:03;13.10;99.90
8666;DHT22;4370;48.916;8.380;2023-08-07T00:20:28;13.10;99.90
8666;DHT22;4370;48.916;8.380;2023-08-07T00:22:54;13.00;99.90
8666;DHT22;4370;48.916;8.380;2023-08-07T00:52:07;13.10;99.90
8666;DHT22;4370;48.916;8.380;2023-08-07T00:59:27;13.00;99.90
8666;DHT22;4370;48.916;8.380;2023-08-07T01:01:53;12.60;99.90
8666;DHT22;4370;48.916;8.380;2023-08-07T06:24:01;15.30;99.90
8666;DHT22;4370;48.916;8.380;2023-08-07T06:26:26;17.10;99.90
8666;DHT22;4370;48.916;8.380;2023-08-07T06:28:52;19.10;99.90
8666;DHT22;4370;48.916;8.380;2023-08-07T06:31:18;20.50;99.90
8666;DHT22;4370;48.916;8.380;2023-08-07T06:33:43;20.60;99.90
8666;DHT22;4370;48.916;8.380;2023-08-07T06:38:35;19.10;99.30
8666;DHT22;4370;48.916;8.380;2023-08-07T06:41:01;18.90;99.90
8666;DHT22;4370;48.916;8.380;2023-08-07T06:43:26;18.50;99.90
8666;DHT22;4370;48.916;8.380;2023-08-07T06:45:56;18.30;99.90
8666;DHT22;4370;48.916;8.380;2023-08-07T06:48:21;17.20;99.90
8666;DHT22;4370;48.916;8.380;2023-08-07T06:50:48;16.90;99.90
8666;DHT22;4370;48.916;8.380;2023-08-07T06:53:14;16.60;99.90
8666;DHT22;4370;48.916;8.380;2023-08-07T06:55:41;16.60;99.90
8666;DHT22;4370;48.916;8.380;2023-08-07T06:58:06;16.30;99.90
8666;DHT22;4370;48.916;8.380;2023-08-07T07:00:32;16.10;99.90
8666;DHT22;4370;48.916;8.380;2023-08-07T07:02:59;17.10;99.90
8666;DHT22;4370;48.916;8.380;2023-08-07T07:05:24;16.00;99.90
8666;DHT22;4370;48.916;8.380;2023-08-07T07:07:50;16.00;99.90
8666;DHT22;4370;48.916;8.380;2023-08-07T07:12:41;16.40;99.90
8666;DHT22;4370;48.916;8.380;2023-08-07T07:15:07;16.90;99.90
8666;DHT22;4370;48.916;8.380;2023-08-07T07:17:34;17.10;99.90
8666;DHT22;4370;48.916;8.380;2023-08-07T07:19:59;17.70;99.90
8666;DHT22;4370;48.916;8.380;2023-08-07T07:22:25;16.90;99.90
8666;DHT22;4370;48.916;8.380;2023-08-07T07:27:17;16.60;99.90
8666;DHT22;4370;48.916;8.380;2023-08-07T07:29:42;16.50;99.90
8666;DHT22;4370;48.916;8.380;2023-08-07T07:34:34;16.40;99.90
8666;DHT22;4370;48.916;8.380;2023-08-07T07:39:25;16.60;99.90
8666;DHT22;4370;48.916;8.380;2023-08-07T07:46:43;16.50;99.90
8666;DHT22;4370;48.916;8.380;2023-08-07T07:54:02;16.40;99.90
8666;DHT22;4370;48.916;8.380;2023-08-07T07:56:27;16.60;99.90
8666;DHT22;4370;48.916;8.380;2023-08-07T08:01:19;16.50;99.90
8666;DHT22;4370;48.916;8.380;2023-08-07T08:03:44;16.70;99.90
8666;DHT22;4370;48.916;8.380;2023-08-07T08:06:11;17.10;99.90
8666;DHT22;4370;48.916;8.380;2023-08-07T08:11:03;17.20;99.90
8666;DHT22;4370;48.916;8.380;2023-08-07T08:13:29;18.60;99.90
8666;DHT22;4370;48.916;8.380;2023-08-07T08:15:55;18.20;99.90
8666;DHT22;4370;48.916;8.380;2023-08-07T08:18:20;17.80;99.90
8666;DHT22;4370;48.916;8.380;2023-08-07T08:20:46;18.60;99.90
8666;DHT22;4370;48.916;8.380;2023-08-07T08:23:11;18.40;99.90
8666;DHT22;4370;48.916;8.380;2023-08-07T08:25:37;19.60;99.90
8666;DHT22;4370;48.916;8.380;2023-08-07T08:28:03;19.20;99.90
8666;DHT22;4370;48.916;8.380;2023-08-07T08:30:29;19.50;99.20
8666;DHT22;4370;48.916;8.380;2023-08-07T08:42:46;20.10;96.30
8666;DHT22;4370;48.916;8.380;2023-08-07T08:45:14;21.00;97.00
8666;DHT22;4370;48.916;8.380;2023-08-07T08:47:41;20.20;96.20
8666;DHT22;4370;48.916;8.380;2023-08-07T09:07:20;20.80;93.50
8666;DHT22;4370;48.916;8.380;2023-08-07T09:09:46;21.80;94.70
8666;DHT22;4370;48.916;8.380;2023-08-07T09:12:19;20.80;94.40
8666;DHT22;4370;48.916;8.380;2023-08-07T09:22:09;20.70;92.70
8666;DHT22;4370;48.916;8.380;2023-08-07T09:27:02;20.20;92.60
8666;DHT22;4370;48.916;8.380;2023-08-07T09:34:23;20.20;93.90
8666;DHT22;4370;48.916;8.380;2023-08-07T09:36:49;20.40;93.10
8666;DHT22;4370;48.916;8.380;2023-08-07T09:41:40;20.30;92.90
8666;DHT22;4370;48.916;8.380;2023-08-07T09:44:07;20.40;92.70
8666;DHT22;4370;48.916;8.380;2023-08-07T09:51:44;20.60;92.40
8666;DHT22;4370;48.916;8.380;2023-08-07T09:54:10;22.00;93.30
8666;DHT22;4370;48.916;8.380;2023-08-07T09:56:37;20.80;92.50
8666;DHT22;4370;48.916;8.380;2023-08-07T09:59:03;21.00;92.00
8666;DHT22;4370;48.916;8.380;2023-08-07T10:03:55;21.40;91.50
8666;DHT22;4370;48.916;8.380;2023-08-07T10:13:40;21.00;90.90
8666;DHT22;4370;48.916;8.380;2023-08-07T10:21:01;21.60;91.20
8666;DHT22;4370;48.916;8.380;2023-08-07T11:08:44;19.60;92.30
8666;DHT22;4370;48.916;8.380;2023-08-07T11:11:09;20.70;93.40
8666;DHT22;4370;48.916;8.380;2023-08-07T11:47:55;19.30;92.80
8666;DHT22;4370;48.916;8.380;2023-08-07T11:50:22;19.60;92.90
8666;DHT22;4370;48.916;8.380;2023-08-07T11:52:48;20.30;93.10
8666;DHT22;4370;48.916;8.380;2023-08-07T11:57:48;20.20;92.20
8666;DHT22;4370;48.916;8.380;2023-08-07T12:02:44;20.30;91.90
8666;DHT22;4370;48.916;8.380;2023-08-07T12:54:10;21.20;91.20
8666;DHT22;4370;48.916;8.380;2023-08-07T12:56:36;21.50;90.70
8666;DHT22;4370;48.916;8.380;2023-08-07T12:59:01;22.00;90.70
8666;DHT22;4370;48.916;8.380;2023-08-07T13:01:28;21.90;90.00
8666;DHT22;4370;48.916;8.380;2023-08-07T13:38:03;19.90;92.40
8666;DHT22;4370;48.916;8.380;2023-08-07T13:47:54;20.30;91.60
8666;DHT22;4370;48.916;8.380;2023-08-07T13:55:11;20.40;91.30
8666;DHT22;4370;48.916;8.380;2023-08-07T14:07:22;20.40;91.00
8666;DHT22;4370;48.916;8.380;2023-08-07T14:17:06;20.30;91.70
8666;DHT22;4370;48.916;8.380;2023-08-07T14:53:36;19.50;92.00
8666;DHT22;4370;48.916;8.380;2023-08-07T14:58:27;19.80;90.00
8666;DHT22;4370;48.916;8.380;2023-08-07T15:00:54;20.50;92.30
8666;DHT22;4370;48.916;8.380;2023-08-07T15:03:20;20.70;92.30
8666;DHT22;4370;48.916;8.380;2023-08-07T15:05:45;20.40;91.80
8666;DHT22;4370;48.916;8.380;2023-08-07T15:08:11;21.20;92.30
8666;DHT22;4370;48.916;8.380;2023-08-07T15:10:36;20.70;92.20
8666;DHT22;4370;48.916;8.380;2023-08-07T15:13:05;21.40;92.70
8666;DHT22;4370;48.916;8.380;2023-08-07T15:15:30;21.00;92.10
8666;DHT22;4370;48.916;8.380;2023-08-07T15:17:56;21.70;92.80
8666;DHT22;4370;48.916;8.380;2023-08-07T15:20:21;21.60;92.90
8666;DHT22;4370;48.916;8.380;2023-08-07T15:22:47;21.70;92.60
8666;DHT22;4370;48.916;8.380;2023-08-07T15:25:13;21.30;92.20
8666;DHT22;4370;48.916;8.380;2023-08-07T15:27:39;21.10;92.20
8666;DHT22;4370;48.916;8.380;2023-08-07T15:30:05;20.90;91.20
8666;DHT22;4370;48.916;8.380;2023-08-07T15:32:31;20.90;91.00
8666;DHT22;4370;48.916;8.380;2023-08-07T15:34:56;21.20;92.00
8666;DHT22;4370;48.916;8.380;2023-08-07T15:37:22;20.60;91.70
8666;DHT22;4370;48.916;8.380;2023-08-07T15:39:47;20.50;91.70
8666;DHT22;4370;48.916;8.380;2023-08-07T15:42:13;20.20;91.80
8666;DHT22;4370;48.916;8.380;2023-08-07T15:44:38;20.60;92.20
8666;DHT22;4370;48.916;8.380;2023-08-07T15:47:04;19.90;91.80
8666;DHT22;4370;48.916;8.380;2023-08-07T15:49:30;19.90;91.10
8666;DHT22;4370;48.916;8.380;2023-08-07T15:51:55;19.80;91.30
8666;DHT22;4370;48.916;8.380;2023-08-07T15:54:21;19.90;91.50
8666;DHT22;4370;48.916;8.380;2023-08-07T15:56:47;20.30;92.20
8666;DHT22;4370;48.916;8.380;2023-08-07T15:59:12;20.00;91.70
8666;DHT22;4370;48.916;8.380;2023-08-07T16:01:38;20.80;92.50
8666;DHT22;4370;48.916;8.380;2023-08-07T16:04:03;20.00;91.90
8666;DHT22;4370;48.916;8.380;2023-08-07T16:06:29;20.00;91.60
8666;DHT22;4370;48.916;8.380;2023-08-07T16:08:54;20.00;91.90
8666;DHT22;4370;48.916;8.380;2023-08-07T16:11:22;20.00;92.00
8666;DHT22;4370;48.916;8.380;2023-08-07T16:13:48;20.80;92.40
8666;DHT22;4370;48.916;8.380;2023-08-07T16:18:40;20.20;91.40
8666;DHT22;4370;48.916;8.380;2023-08-07T16:21:07;20.70;92.90
8666;DHT22;4370;48.916;8.380;2023-08-07T16:23:32;20.20;92.40
8666;DHT22;4370;48.916;8.380;2023-08-07T16:25:58;21.20;93.40
8666;DHT22;4370;48.916;8.380;2023-08-07T16:28:23;20.00;92.80
8666;DHT22;4370;48.916;8.380;2023-08-07T16:33:15;19.60;91.60
8666;DHT22;4370;48.916;8.380;2023-08-07T16:35:40;19.50;93.50
8666;DHT22;4370;48.916;8.380;2023-08-07T16:38:06;19.30;93.50
8666;DHT22;4370;48.916;8.380;2023-08-07T16:40:31;19.30;93.90
8666;DHT22;4370;48.916;8.380;2023-08-07T16:43:03;19.60;94.20
8666;DHT22;4370;48.916;8.380;2023-08-07T16:45:31;19.20;92.40
8666;DHT22;4370;48.916;8.380;2023-08-07T16:47:57;19.20;93.60
8666;DHT22;4370;48.916;8.380;2023-08-07T16:50:23;19.20;93.40
8666;DHT22;4370;48.916;8.380;2023-08-07T16:52:53;19.40;92.30
8666;DHT22;4370;48.916;8.380;2023-08-07T16:57:45;19.50;92.70
8666;DHT22;4370;48.916;8.380;2023-08-07T17:00:11;19.50;93.10
8666;DHT22;4370;48.916;8.380;2023-08-07T17:02:37;19.70;93.00
8666;DHT22;4370;48.916;8.380;2023-08-07T17:05:03;19.70;92.50
8666;DHT22;4370;48.916;8.380;2023-08-07T17:07:29;19.30;92.50
8666;DHT22;4370;48.916;8.380;2023-08-07T17:09:54;19.60;92.60
8666;DHT22;4370;48.916;8.380;2023-08-07T17:12:20;19.50;92.70
8666;DHT22;4370;48.916;8.380;2023-08-07T17:14:45;19.40;92.80
8666;DHT22;4370;48.916;8.380;2023-08-07T17:17:11;19.30;92.80
8666;DHT22;4370;48.916;8.380;2023-08-07T17:19:36;19.30;93.30
8666;DHT22;4370;48.916;8.380;2023-08-07T17:22:02;19.30;92.80
8666;DHT22;4370;48.916;8.380;2023-08-07T17:24:30;19.20;93.00
8666;DHT22;4370;48.916;8.380;2023-08-07T17:26:55;19.10;93.40
8666;DHT22;4370;48.916;8.380;2023-08-07T17:31:47;18.90;93.50
8666;DHT22;4370;48.916;8.380;2023-08-07T17:34:12;18.80;93.70
8666;DHT22;4370;48.916;8.380;2023-08-07T17:39:04;18.80;93.10
8666;DHT22;4370;48.916;8.380;2023-08-07T17:41:30;18.80;94.00
8666;DHT22;4370;48.916;8.380;2023-08-07T17:43:56;18.70;94.40
8666;DHT22;4370;48.916;8.380;2023-08-07T17:46:21;18.90;94.10
8666;DHT22;4370;48.916;8.380;2023-08-07T17:48:47;19.10;94.30
8666;DHT22;4370;48.916;8.380;2023-08-07T17:51:13;19.10;94.30
8666;DHT22;4370;48.916;8.380;2023-08-07T17:56:05;19.20;94.10
8666;DHT22;4370;48.916;8.380;2023-08-07T17:58:30;19.30;94.10
8666;DHT22;4370;48.916;8.380;2023-08-07T18:00:56;19.10;94.00
8666;DHT22;4370;48.916;8.380;2023-08-07T18:03:21;20.10;94.40
8666;DHT22;4370;48.916;8.380;2023-08-07T18:05:47;19.10;93.70
8666;DHT22;4370;48.916;8.380;2023-08-07T18:08:13;19.00;93.70
8666;DHT22;4370;48.916;8.380;2023-08-07T18:15:30;18.60;94.20
8666;DHT22;4370;48.916;8.380;2023-08-07T18:17:56;18.40;94.20
8666;DHT22;4370;48.916;8.380;2023-08-07T18:20:21;18.40;94.30
8666;DHT22;4370;48.916;8.380;2023-08-07T18:25:13;18.20;94.40
8666;DHT22;4370;48.916;8.380;2023-08-07T18:27:38;18.20;94.50
8666;DHT22;4370;48.916;8.380;2023-08-07T18:30:04;18.10;94.50
8666;DHT22;4370;48.916;8.380;2023-08-07T18:32:30;18.10;94.60
8666;DHT22;4370;48.916;8.380;2023-08-07T18:34:56;18.00;94.70
8666;DHT22;4370;48.916;8.380;2023-08-07T18:37:21;17.90;94.80
8666;DHT22;4370;48.916;8.380;2023-08-07T18:39:47;17.90;95.20
8666;DHT22;4370;48.916;8.380;2023-08-07T18:44:39;17.80;95.50
8666;DHT22;4370;48.916;8.380;2023-08-07T18:47:04;17.50;95.70
8666;DHT22;4370;48.916;8.380;2023-08-07T18:51:57;17.30;96.30
8666;DHT22;4370;48.916;8.380;2023-08-07T18:56:49;16.90;96.40
8666;DHT22;4370;48.916;8.380;2023-08-07T18:59:17;16.70;97.30
8666;DHT22;4370;48.916;8.380;2023-08-07T19:16:22;16.20;98.00
8666;DHT22;4370;48.916;8.380;2023-08-07T19:21:14;16.00;99.10
8666;DHT22;4370;48.916;8.380;2023-08-07T19:23:39;15.90;99.20
8666;DHT22;4370;48.916;8.380;2023-08-07T19:30:58;15.70;99.70
8666;DHT22;4370;48.916;8.380;2023-08-07T19:33:24;15.60;99.90
8666;DHT22;4370;48.916;8.380;2023-08-07T19:38:15;15.60;99.70
8666;DHT22;4370;48.916;8.380;2023-08-07T19:43:07;15.40;99.00
8666;DHT22;4370;48.916;8.380;2023-08-07T19:45:33;16.10;99.90
8666;DHT22;4370;48.916;8.380;2023-08-07T19:47:58;15.30;99.90
8666;DHT22;4370;48.916;8.380;2023-08-07T19:50:24;15.30;99.90
8666;DHT22;4370;48.916;8.380;2023-08-07T19:52:51;15.30;99.90
8666;DHT22;4370;48.916;8.380;2023-08-07T19:55:16;15.20;99.90
8666;DHT22;4370;48.916;8.380;2023-08-07T19:57:43;15.20;99.90
8666;DHT22;4370;48.916;8.380;2023-08-07T20:00:09;15.30;99.90
8666;DHT22;4370;48.916;8.380;2023-08-07T20:02:35;15.40;99.90
8666;DHT22;4370;48.916;8.380;2023-08-07T20:05:01;15.50;99.90
8666;DHT22;4370;48.916;8.380;2023-08-07T20:07:27;16.00;99.90
8666;DHT22;4370;48.916;8.380;2023-08-07T20:09:52;15.60;99.90
8666;DHT22;4370;48.916;8.380;2023-08-07T20:12:18;15.60;99.90
8666;DHT22;4370;48.916;8.380;2023-08-07T20:14:45;15.70;99.90
8666;DHT22;4370;48.916;8.380;2023-08-07T20:17:10;15.70;99.90
8666;DHT22;4370;48.916;8.380;2023-08-07T20:19:36;16.40;99.90
8666;DHT22;4370;48.916;8.380;2023-08-07T20:22:02;15.80;99.90
8666;DHT22;4370;48.916;8.380;2023-08-07T20:24:28;15.70;99.90
8666;DHT22;4370;48.916;8.380;2023-08-07T20:26:57;15.70;99.90
8666;DHT22;4370;48.916;8.380;2023-08-07T20:29:23;17.10;99.90
8666;DHT22;4370;48.916;8.380;2023-08-07T20:31:49;16.50;99.90
8666;DHT22;4370;48.916;8.380;2023-08-07T20:34:14;15.50;99.90
8666;DHT22;4370;48.916;8.380;2023-08-07T20:36:40;15.30;99.90
8666;DHT22;4370;48.916;8.380;2023-08-07T20:39:06;15.30;99.90
8666;DHT22;4370;48.916;8.380;2023-08-07T20:41:32;15.20;99.90
8666;DHT22;4370;48.916;8.380;2023-08-07T20:43:57;15.10;99.90
8666;DHT22;4370;48.916;8.380;2023-08-07T20:48:49;15.10;99.90
8666;DHT22;4370;48.916;8.380;2023-08-07T20:51:18;15.20;99.90
8666;DHT22;4370;48.916;8.380;2023-08-07T20:56:11;14.90;99.90
8666;DHT22;4370;48.916;8.380;2023-08-07T20:58:37;15.60;99.90
8666;DHT22;4370;48.916;8.380;2023-08-07T21:01:03;14.90;99.90
8666;DHT22;4370;48.916;8.380;2023-08-07T21:03:29;15.80;99.90
8666;DHT22;4370;48.916;8.380;2023-08-07T21:05:55;14.90;99.90
8666;DHT22;4370;48.916;8.380;2023-08-07T21:08:20;14.90;99.90
8666;DHT22;4370;48.916;8.380;2023-08-07T21:15:38;14.90;99.90
8666;DHT22;4370;48.916;8.380;2023-08-07T21:18:04;14.80;99.90
8666;DHT22;4370;48.916;8.380;2023-08-07T21:22:56;14.70;99.90
8666;DHT22;4370;48.916;8.380;2023-08-07T21:27:47;14.70;99.90
8666;DHT22;4370;48.916;8.380;2023-08-07T21:30:13;15.30;99.90
8666;DHT22;4370;48.916;8.380;2023-08-07T21:32:39;14.60;99.90
8666;DHT22;4370;48.916;8.380;2023-08-07T21:35:12;14.50;99.90
8666;DHT22;4370;48.916;8.380;2023-08-07T22:01:58;14.30;99.90
8666;DHT22;4370;48.916;8.380;2023-08-07T22:04:24;14.20;99.90
8666;DHT22;4370;48.916;8.380;2023-08-07T22:16:33;14.20;99.90
8666;DHT22;4370;48.916;8.380;2023-08-07T22:21:25;14.30;99.90
8666;DHT22;4370;48.916;8.380;2023-08-07T22:26:17;14.40;99.90
8666;DHT22;4370;48.916;8.380;2023-08-07T22:28:43;14.40;99.90
8666;DHT22;4370;48.916;8.380;2023-08-07T22:33:34;14.40;99.90
8666;DHT22;4370;48.916;8.380;2023-08-07T22:36:03;15.40;99.90
8666;DHT22;4370;48.916;8.380;2023-08-07T22:58:00;13.80;99.90
